Time;durP1;ratioP1;P1;durP2;ratioP2;P2;SDS_P1;SDS_P2;PMS_P1;PMS_P2;Temp;Humidity;BMP_temperature;BMP_pressure;BME280_temperature;BME280_humidity;BME280_pressure;Samples;Min_cycle;Max_cycle;Signal;HPM_P1;HPM_P2
2023/06/06 00:00:40;;;;;;;9.07;6.73;;;12.60;1.00;;;;;;5016813;28;20327;-56
2023/06/06 00:03:05;;;;;;;14.17;7.83;;;12.60;99.60;;;;;;5017318;28;20502;-57
2023/06/06 00:05:33;;;;;;;12.90;7.50;;;12.60;1.00;;;;;;5017245;28;20211;-56
2023/06/06 00:07:59;;;;;;;10.40;7.20;;;12.50;1.00;;;;;;5017160;28;20195;-57
2023/06/06 00:10:25;;;;;;;15.13;7.90;;;12.50;99.90;;;;;;5016821;28;20469;-57
2023/06/06 00:12:52;;;;;;;12.47;7.50;;;12.40;1.00;;;;;;5017044;28;20415;-56
2023/06/06 00:15:19;;;;;;;8.37;6.73;;;12.40;1.00;;;;;;5017336;28;20192;-57
2023/06/06 00:17:45;;;;;;;9.53;6.97;;;12.40;99.90;;;;;;5017166;28;20438;-55
2023/06/06 00:20:12;;;;;;;9.30;7.30;;;12.30;99.90;;;;;;5017134;28;20481;-57
2023/06/06 00:22:39;;;;;;;8.20;6.97;;;12.30;99.90;;;;;;5016942;28;20411;-55
2023/06/06 00:25:06;;;;;;;12.47;7.43;;;12.30;1.00;;;;;;5017031;28;20513;-56
2023/06/06 00:27:33;;;;;;;9.00;7.67;;;12.20;1.00;;;;;;5016712;28;20418;-57
2023/06/06 00:29:58;;;;;;;11.80;7.37;;;12.10;99.90;;;;;;5016943;28;20430;-57
2023/06/06 00:32:25;;;;;;;11.40;8.40;;;12.10;99.90;;;;;;5016897;28;20784;-57
2023/06/06 00:34:50;;;;;;;7.70;6.73;;;12.10;99.90;;;;;;5015557;28;20278;-55
2023/06/06 00:37:16;;;;;;;10.00;7.03;;;12.10;81.70;;;;;;5016930;28;20448;-56
2023/06/06 00:39:42;;;;;;;10.57;7.67;;;12.10;99.90;;;;;;5016662;28;20180;-56
2023/06/06 00:42:08;;;;;;;9.87;7.50;;;12.10;7.70;;;;;;5016481;28;20412;-57
2023/06/06 00:44:33;;;;;;;9.67;7.53;;;12.00;99.90;;;;;;5016148;28;20676;-56
2023/06/06 00:46:59;;;;;;;12.03;7.53;;;12.00;23.00;;;;;;5016434;28;20184;-57
2023/06/06 00:49:26;;;;;;;10.53;7.40;;;11.90;99.90;;;;;;5016301;28;20191;-55
2023/06/06 00:51:51;;;;;;;14.70;8.23;;;11.90;99.90;;;;;;5015623;28;20789;-56
2023/06/06 00:54:18;;;;;;;9.83;7.53;;;11.80;7.50;;;;;;5015925;28;20462;-56
2023/06/06 00:56:47;;;;;;;12.80;8.00;;;11.80;99.90;;;;;;5015972;28;20263;-56
2023/06/06 00:59:14;;;;;;;14.20;8.87;;;11.80;99.90;;;;;;5014715;28;20907;-56
2023/06/06 01:01:41;;;;;;;13.83;8.10;;;11.80;63.40;;;;;;5015929;28;20411;-56
2023/06/06 01:04:08;;;;;;;14.20;8.80;;;11.80;99.90;;;;;;5016087;28;20453;-55
2023/06/06 01:06:37;;;;;;;19.37;9.20;;;11.90;1.00;;;;;;5016017;28;20423;-56
2023/06/06 01:09:05;;;;;;;12.77;8.80;;;11.80;1.00;;;;;;5015804;28;20838;-56
2023/06/06 01:11:49;;;;;;;15.37;8.07;;;11.90;99.90;;;;;;5016170;28;20427;-56
2023/06/06 01:14:37;;;;;;;13.30;9.37;;;11.90;1.00;;;;;;5016211;28;20403;-55
2023/06/06 01:17:07;;;;;;;14.37;8.90;;;11.90;1.00;;;;;;5015430;28;20454;-56
2023/06/06 01:19:33;;;;;;;14.40;9.20;;;11.90;1.00;;;;;;5015847;28;20426;-56
2023/06/06 01:22:00;;;;;;;14.50;8.20;;;11.90;1.00;;;;;;5015258;28;20998;-55
2023/06/06 01:24:29;;;;;;;15.80;8.93;;;11.90;1.00;;;;;;5015896;28;20466;-56
2023/06/06 01:26:54;;;;;;;12.83;9.07;;;11.80;1.00;;;;;;5015739;28;20454;-56
2023/06/06 01:29:21;;;;;;;15.03;9.50;;;11.80;1.00;;;;;;5015590;28;20911;-56
2023/06/06 01:32:00;;;;;;;20.13;9.50;;;11.80;1.00;;;;;;5015381;28;20200;-55
2023/06/06 01:34:49;;;;;;;15.27;8.87;;;11.80;1.00;;;;;;5015262;28;20412;-56
2023/06/06 01:37:27;;;;;;;13.63;9.40;;;11.80;1.00;;;;;;5015765;28;20436;-55
2023/06/06 01:39:56;;;;;;;14.30;8.20;;;11.70;9.00;;;;;;5015741;28;20421;-56
2023/06/06 01:42:23;;;;;;;16.40;9.03;;;11.70;1.00;;;;;;5015033;28;20462;-56
2023/06/06 01:44:52;;;;;;;10.90;8.63;;;11.70;1.00;;;;;;5015034;28;20554;-56
2023/06/06 01:47:19;;;;;;;14.10;8.30;;;11.70;1.00;;;;;;5015177;28;20419;-56
2023/06/06 01:49:45;;;;;;;12.80;8.33;;;11.60;13.70;;;;;;5014932;28;20426;-56
2023/06/06 01:52:11;;;;;;;14.87;8.63;;;11.60;21.40;;;;;;5015001;28;20490;-56
2023/06/06 01:54:40;;;;;;;12.33;7.93;;;11.60;24.40;;;;;;5015164;28;20469;-55
2023/06/06 01:57:07;;;;;;;12.20;8.37;;;11.50;36.20;;;;;;5015243;28;20482;-56
2023/06/06 01:59:33;;;;;;;13.17;8.27;;;11.50;56.40;;;;;;5015910;28;20923;-56
2023/06/06 02:01:59;;;;;;;12.83;8.50;;;11.50;99.90;;;;;;5015372;28;20808;-56
2023/06/06 02:04:24;;;;;;;10.30;7.53;;;11.40;99.90;;;;;;5014664;28;20550;-55
2023/06/06 02:06:51;;;;;;;14.03;8.60;;;11.40;99.90;;;;;;5015122;28;20192;-56
2023/06/06 02:09:17;;;;;;;9.93;7.63;;;11.40;99.90;;;;;;5015064;28;20237;-56
2023/06/06 02:11:42;;;;;;;14.40;8.10;;;11.40;99.90;;;;;;5014839;28;20799;-55
2023/06/06 02:14:08;;;;;;;16.47;8.50;;;11.40;99.90;;;;;;5014694;28;20454;-55
2023/06/06 02:16:36;;;;;;;13.33;8.70;;;11.40;99.90;;;;;;5015061;28;20176;-56
2023/06/06 02:19:02;;;;;;;14.07;9.10;;;11.40;99.90;;;;;;5014850;28;20184;-56
2023/06/06 02:21:28;;;;;;;15.93;8.70;;;11.40;99.90;;;;;;5014365;28;20415;-56
2023/06/06 02:23:53;;;;;;;11.90;8.20;;;11.30;99.90;;;;;;5014148;28;20802;-56
2023/06/06 02:26:21;;;;;;;14.77;8.93;;;11.30;99.90;;;;;;5014795;28;20188;-56
2023/06/06 02:28:47;;;;;;;15.67;9.17;;;11.30;99.90;;;;;;5014625;28;20184;-56
2023/06/06 02:31:14;;;;;;;15.23;8.30;;;11.30;99.90;;;;;;5014607;28;20411;-56
2023/06/06 02:33:40;;;;;;;16.93;8.47;;;11.30;99.90;;;;;;5014787;28;20191;-56
2023/06/06 02:36:06;;;;;;;14.77;9.73;;;11.30;99.90;;;;;;5014702;28;20817;-56
2023/06/06 02:38:32;;;;;;;16.13;9.37;;;11.20;99.90;;;;;;5013908;28;20789;-56
2023/06/06 02:40:57;;;;;;;15.73;8.87;;;11.20;99.90;;;;;;5014562;28;20473;-56
2023/06/06 02:43:23;;;;;;;16.53;8.97;;;11.20;99.90;;;;;;5014266;28;20549;-56
2023/06/06 02:45:48;;;;;;;17.30;8.80;;;11.10;99.90;;;;;;5014365;28;20237;-56
2023/06/06 02:48:14;;;;;;;13.10;8.60;;;11.10;99.90;;;;;;5014241;28;20245;-55
2023/06/06 02:50:39;;;;;;;14.13;8.77;;;11.10;99.90;;;;;;5014300;28;20188;-56
2023/06/06 02:53:06;;;;;;;18.00;9.03;;;11.10;99.90;;;;;;5013884;28;20652;-56
2023/06/06 02:55:31;;;;;;;13.50;9.10;;;11.10;99.90;;;;;;5014026;28;20184;-56
2023/06/06 02:57:57;;;;;;;15.83;9.20;;;11.00;99.90;;;;;;5013590;28;20474;-56
2023/06/06 03:00:23;;;;;;;18.53;9.37;;;11.10;99.90;;;;;;5014060;28;20180;-56
2023/06/06 03:02:48;;;;;;;15.40;9.10;;;11.10;99.90;;;;;;5013928;28;20184;-56
2023/06/06 03:05:14;;;;;;;19.73;10.00;;;11.10;99.90;;;;;;5014051;28;20461;-55
2023/06/06 03:07:40;;;;;;;18.17;9.57;;;11.10;99.90;;;;;;5014274;28;20192;-56
2023/06/06 03:10:06;;;;;;;16.43;9.80;;;11.00;99.90;;;;;;5014155;28;20183;-56
2023/06/06 03:12:32;;;;;;;19.47;9.53;;;11.00;99.90;;;;;;5014163;28;20415;-56
2023/06/06 03:14:58;;;;;;;17.83;9.80;;;11.00;99.90;;;;;;5013718;28;20740;-56
2023/06/06 03:17:23;;;;;;;16.37;11.00;;;11.00;99.90;;;;;;5013689;28;20179;-56
2023/06/06 03:19:49;;;;;;;14.30;9.70;;;11.00;99.90;;;;;;5014115;28;20250;-57
2023/06/06 03:22:17;;;;;;;14.10;9.83;;;10.90;99.90;;;;;;5013392;28;20195;-56
2023/06/06 03:24:46;;;;;;;20.73;10.80;;;10.90;99.90;;;;;;5013820;28;20291;-56
2023/06/06 03:27:13;;;;;;;15.80;10.07;;;10.90;99.90;;;;;;5013878;28;20526;-56
2023/06/06 03:29:39;;;;;;;15.93;9.90;;;10.90;99.90;;;;;;5013674;28;20419;-54
2023/06/06 03:32:06;;;;;;;17.20;10.20;;;10.90;99.90;;;;;;5013803;28;20422;-56
2023/06/06 03:34:32;;;;;;;17.20;10.47;;;10.90;99.90;;;;;;5013986;28;20199;-55
2023/06/06 03:36:58;;;;;;;14.40;10.77;;;10.90;99.90;;;;;;5013812;28;20438;-56
2023/06/06 03:39:24;;;;;;;14.20;10.10;;;10.90;99.90;;;;;;5013645;28;20423;-56
2023/06/06 03:41:50;;;;;;;20.43;10.20;;;10.90;99.90;;;;;;5013624;28;20427;-56
2023/06/06 03:44:15;;;;;;;21.67;11.90;;;10.90;99.90;;;;;;5013276;28;20466;-55
2023/06/06 03:46:41;;;;;;;20.43;10.57;;;11.00;99.90;;;;;;5013351;28;20192;-56
2023/06/06 03:49:06;;;;;;;18.10;11.53;;;11.00;99.90;;;;;;5013480;28;20176;-56
2023/06/06 03:51:32;;;;;;;18.57;10.10;;;11.10;99.90;;;;;;5013626;28;20271;-55
2023/06/06 03:53:58;;;;;;;17.53;10.90;;;11.10;99.90;;;;;;5013479;28;20188;-56
2023/06/06 03:56:23;;;;;;;16.30;10.33;;;11.10;99.90;;;;;;5013478;28;20184;-56
2023/06/06 03:58:49;;;;;;;20.23;11.63;;;11.10;99.90;;;;;;5013454;28;20654;-56
2023/06/06 04:01:15;;;;;;;22.13;12.30;;;11.10;99.90;;;;;;5013339;28;20180;-56
2023/06/06 04:03:42;;;;;;;19.10;10.93;;;11.20;99.90;;;;;;5013425;28;20478;-56
2023/06/06 04:06:08;;;;;;;22.73;12.07;;;11.20;99.90;;;;;;5013243;28;20598;-56
2023/06/06 04:08:35;;;;;;;17.33;11.47;;;11.20;99.90;;;;;;5015863;28;20422;-56
2023/06/06 04:11:01;;;;;;;23.43;12.83;;;11.30;99.90;;;;;;5017265;28;20434;-55
2023/06/06 04:13:26;;;;;;;17.30;11.50;;;11.40;99.90;;;;;;5016650;28;20415;-56
2023/06/06 04:15:52;;;;;;;17.57;12.00;;;11.40;99.90;;;;;;5017210;28;20419;-56
2023/06/06 04:18:18;;;;;;;17.57;11.90;;;11.50;99.90;;;;;;5017254;28;20314;-56
2023/06/06 04:20:44;;;;;;;24.07;12.13;;;11.60;99.90;;;;;;5016978;28;20176;-56
2023/06/06 04:23:10;;;;;;;22.63;12.47;;;11.60;99.90;;;;;;5016453;28;20750;-56
2023/06/06 04:25:35;;;;;;;25.80;12.30;;;11.60;99.90;;;;;;5016887;28;20466;-56
2023/06/06 04:28:01;;;;;;;17.53;11.60;;;11.80;99.90;;;;;;5016820;28;20192;-56
2023/06/06 04:30:29;;;;;;;26.50;12.83;;;11.80;99.90;;;;;;5016993;28;20488;-56
2023/06/06 04:32:56;;;;;;;20.43;11.43;;;11.90;99.90;;;;;;5016957;28;20259;-56
2023/06/06 04:35:22;;;;;;;20.33;12.17;;;12.00;99.90;;;;;;5016636;28;20427;-56
2023/06/06 04:37:50;;;;;;;22.83;11.80;;;12.10;99.90;;;;;;5016254;28;20763;-56
2023/06/06 04:40:16;;;;;;;22.23;11.00;;;12.30;99.90;;;;;;5016341;28;20183;-56
2023/06/06 04:42:41;;;;;;;18.57;10.43;;;12.50;99.90;;;;;;5016506;28;20419;-57
2023/06/06 04:45:07;;;;;;;16.40;11.60;;;12.70;99.90;;;;;;5016224;28;20212;-57
2023/06/06 04:47:39;;;;;;;23.00;12.90;;;12.80;99.90;;;;;;5016414;28;20184;-55
2023/06/06 04:50:06;;;;;;;18.80;11.90;;;13.00;99.90;;;;;;5016288;28;20981;-57
2023/06/06 04:52:33;;;;;;;18.37;10.70;;;13.10;99.90;;;;;;5016090;28;20790;-57
2023/06/06 04:55:03;;;;;;;19.33;11.37;;;13.30;99.90;;;;;;5016274;28;20450;-58
2023/06/06 04:57:29;;;;;;;28.40;10.90;;;13.30;99.90;;;;;;5015826;28;20494;-56
2023/06/06 04:59:56;;;;;;;19.17;10.80;;;13.50;99.90;;;;;;5015937;28;20986;-57
2023/06/06 05:02:23;;;;;;;19.20;11.60;;;13.50;99.90;;;;;;5016132;28;20911;-60
2023/06/06 05:04:52;;;;;;;15.43;10.53;;;13.70;99.90;;;;;;5015750;28;20961;-57
2023/06/06 05:07:18;;;;;;;16.70;10.43;;;13.80;99.90;;;;;;5015777;28;20422;-56
2023/06/06 05:09:44;;;;;;;16.13;11.07;;;13.90;27.10;;;;;;5015880;28;20763;-57
2023/06/06 05:12:10;;;;;;;20.53;11.57;;;14.00;1.00;;;;;;5015940;28;20187;-57
2023/06/06 05:14:35;;;;;;;14.73;10.60;;;14.10;1.00;;;;;;5015733;28;20190;-57
2023/06/06 05:17:01;;;;;;;15.60;10.20;;;14.20;1.00;;;;;;5015778;28;20411;-56
2023/06/06 05:19:27;;;;;;;21.33;11.10;;;14.40;1.00;;;;;;5015218;28;20184;-56
2023/06/06 05:21:52;;;;;;;17.37;10.10;;;14.50;99.90;;;;;;5015702;28;20176;-57
2023/06/06 05:24:18;;;;;;;13.33;9.57;;;14.70;99.90;;;;;;5015886;28;20215;-56
2023/06/06 05:26:44;;;;;;;20.43;10.57;;;14.90;99.90;;;;;;5015965;28;20202;-57
2023/06/06 05:29:10;;;;;;;16.73;10.07;;;15.10;17.00;;;;;;5015668;28;20268;-56
2023/06/06 05:31:37;;;;;;;17.90;10.00;;;15.30;1.00;;;;;;5015798;28;20173;-56
2023/06/06 05:34:03;;;;;;;18.50;10.17;;;15.40;99.90;;;;;;5015521;28;20420;-55
2023/06/06 05:36:29;;;;;;;14.07;9.70;;;15.60;1.00;;;;;;5015811;28;20486;-56
2023/06/06 05:38:55;;;;;;;14.40;10.30;;;15.70;1.00;;;;;;5015521;28;20420;-56
2023/06/06 05:41:21;;;;;;;16.30;9.23;;;15.80;99.90;;;;;;5015480;28;20913;-57
2023/06/06 05:43:50;;;;;;;18.87;10.00;;;16.00;95.20;;;;;;5014828;28;20205;-57
2023/06/06 05:46:17;;;;;;;14.93;10.20;;;16.10;40.00;;;;;;5015354;28;20194;-56
2023/06/06 05:48:43;;;;;;;13.40;9.90;;;16.20;14.90;;;;;;5015292;28;20428;-57
2023/06/06 05:51:08;;;;;;;16.60;10.83;;;16.40;1.00;;;;;;5015216;28;20427;-55
2023/06/06 05:53:35;;;;;;;15.50;9.87;;;16.60;1.00;;;;;;5015068;28;20242;-57
2023/06/06 05:56:00;;;;;;;12.10;8.27;;;16.80;1.00;;;;;;5015393;28;20189;-57
2023/06/06 05:58:26;;;;;;;19.00;10.07;;;17.10;1.00;;;;;;5015033;28;20776;-57
2023/06/06 06:00:52;;;;;;;17.10;8.87;;;17.40;1.00;;;;;;5015232;28;20189;-56
2023/06/06 06:03:18;;;;;;;16.53;9.80;;;17.60;1.00;;;;;;5014789;28;20184;-57
2023/06/06 06:05:44;;;;;;;14.30;9.87;;;17.80;1.00;;;;;;5014895;28;20301;-57
2023/06/06 06:08:10;;;;;;;14.60;8.30;;;17.90;1.00;;;;;;5015011;28;20557;-56
2023/06/06 06:10:37;;;;;;;16.97;8.50;;;18.10;1.00;;;;;;5014848;28;20428;-57
2023/06/06 06:13:04;;;;;;;14.53;8.50;;;18.40;1.00;;;;;;5015006;28;20477;-56
2023/06/06 06:15:30;;;;;;;17.73;8.87;;;18.60;1.00;;;;;;5014646;28;20491;-57
2023/06/06 06:17:56;;;;;;;13.20;9.03;;;18.90;1.00;;;;;;5014475;28;20506;-57
2023/06/06 06:20:22;;;;;;;9.87;7.53;;;19.00;1.00;;;;;;5014539;28;20508;-56
2023/06/06 06:22:48;;;;;;;15.37;8.47;;;19.20;1.00;;;;;;5014415;28;20189;-57
2023/06/06 06:25:13;;;;;;;11.13;7.30;;;19.40;1.00;;;;;;5014632;28;20265;-57
2023/06/06 06:27:40;;;;;;;13.00;8.73;;;19.40;1.00;;;;;;5014769;28;20191;-57
2023/06/06 06:30:07;;;;;;;11.70;7.30;;;19.40;1.00;;;;;;5014522;28;20227;-57
2023/06/06 06:32:36;;;;;;;10.70;7.23;;;19.60;1.00;;;;;;5013490;28;20468;-56
2023/06/06 06:35:03;;;;;;;15.90;7.67;;;19.80;1.00;;;;;;5014193;28;20437;-56
2023/06/06 06:37:30;;;;;;;13.60;7.87;;;20.10;1.00;;;;;;5014531;28;20426;-56
2023/06/06 06:39:56;;;;;;;13.40;7.63;;;20.30;1.00;;;;;;5014068;28;20422;-56
2023/06/06 06:42:22;;;;;;;9.40;6.73;;;20.40;1.00;;;;;;5014346;28;20422;-56
2023/06/06 06:44:48;;;;;;;11.03;6.83;;;20.70;1.00;;;;;;5014042;28;20515;-56
2023/06/06 06:47:14;;;;;;;9.00;6.00;;;21.00;1.00;;;;;;5014469;28;20546;-56
2023/06/06 06:49:41;;;;;;;10.43;7.30;;;21.10;1.00;;;;;;5014052;28;20424;-56
2023/06/06 06:52:15;;;;;;;11.73;6.70;;;21.20;1.00;;;;;;5013686;28;20262;-56
2023/06/06 06:54:58;;;;;;;10.50;6.60;;;21.20;1.00;;;;;;5014246;28;20406;-57
2023/06/06 06:57:26;;;;;;;10.00;6.50;;;21.40;1.00;;;;;;5014259;28;20418;-57
2023/06/06 07:00:12;;;;;;;10.17;6.47;;;21.60;1.00;;;;;;5013985;28;20906;-57
2023/06/06 07:02:39;;;;;;;7.53;6.57;;;21.90;1.00;;;;;;5014282;28;20415;-57
2023/06/06 07:05:06;;;;;;;8.37;5.53;;;21.90;1.00;;;;;;5013950;28;20556;-57
2023/06/06 07:07:32;;;;;;;8.43;6.67;;;21.90;1.00;;;;;;5014114;28;20412;-57
2023/06/06 07:09:58;;;;;;;12.13;7.07;;;22.10;1.00;;;;;;5013792;28;20433;-57
2023/06/06 07:12:23;;;;;;;16.47;6.77;;;22.20;1.00;;;;;;5013455;28;20188;-57
2023/06/06 07:14:49;;;;;;;10.20;6.40;;;22.20;1.00;;;;;;5013911;28;20183;-56
2023/06/06 07:17:15;;;;;;;10.23;5.40;;;22.40;1.00;;;;;;5014138;28;20187;-56
2023/06/06 07:19:42;;;;;;;11.20;5.87;;;22.50;1.00;;;;;;5014072;28;20427;-57
2023/06/06 07:22:08;;;;;;;8.47;5.07;;;22.80;1.00;;;;;;5013750;28;20428;-57
2023/06/06 07:24:34;;;;;;;12.77;6.47;;;23.30;1.00;;;;;;5013581;28;20487;-55
2023/06/06 07:27:00;;;;;;;9.53;6.20;;;23.60;1.00;;;;;;5013296;28;20456;-54
2023/06/06 07:29:27;;;;;;;9.90;5.27;;;23.60;1.00;;;;;;5013580;28;20183;-54
2023/06/06 07:31:56;;;;;;;10.40;5.40;;;23.50;1.00;;;;;;5013629;28;20201;-55
2023/06/06 07:34:22;;;;;;;12.23;5.13;;;23.60;1.00;;;;;;5013966;28;20422;-55
2023/06/06 07:36:48;;;;;;;8.20;4.70;;;23.50;1.00;;;;;;5013458;28;20429;-54
2023/06/06 07:39:14;;;;;;;9.67;4.90;;;23.60;1.00;;;;;;5013795;28;20427;-55
2023/06/06 07:41:40;;;;;;;10.10;5.43;;;23.80;1.00;;;;;;5012371;28;20440;-54
2023/06/06 07:44:05;;;;;;;12.67;5.30;;;23.80;1.00;;;;;;5016831;28;20205;-55
2023/06/06 07:46:31;;;;;;;9.73;4.80;;;23.80;1.00;;;;;;5017387;28;20194;-55
2023/06/06 07:48:58;;;;;;;7.67;4.50;;;24.00;1.00;;;;;;5017234;28;20185;-55
2023/06/06 07:51:23;;;;;;;5.63;4.57;;;24.40;1.00;;;;;;5017570;28;20225;-55
2023/06/06 07:53:50;;;;;;;6.87;4.43;;;24.80;1.00;;;;;;5016921;28;20541;-55
2023/06/06 07:56:17;;;;;;;11.47;4.63;;;24.80;1.00;;;;;;5016984;28;20588;-54
2023/06/06 07:58:51;;;;;;;9.50;4.47;;;24.90;1.00;;;;;;5017326;28;20474;-56
2023/06/06 08:01:19;;;;;;;5.60;4.00;;;25.20;1.00;;;;;;5016930;28;20410;-54
2023/06/06 08:03:49;;;;;;;7.10;4.50;;;25.30;99.90;;;;;;5017134;28;20528;-55
2023/06/06 08:06:17;;;;;;;6.80;4.37;;;25.30;99.90;;;;;;5017558;28;20579;-54
2023/06/06 08:08:42;;;;;;;5.10;4.50;;;25.10;99.90;;;;;;5017450;28;20449;-55
2023/06/06 08:11:08;;;;;;;6.20;4.20;;;25.20;99.90;;;;;;5017119;28;20419;-56
2023/06/06 08:13:34;;;;;;;11.50;4.07;;;25.50;99.90;;;;;;5017138;28;20534;-55
2023/06/06 08:15:59;;;;;;;7.23;3.90;;;25.60;99.90;;;;;;5017159;28;20191;-57
2023/06/06 08:18:25;;;;;;;6.30;3.97;;;25.60;99.90;;;;;;5016998;28;20639;-55
2023/06/06 08:20:50;;;;;;;7.03;4.67;;;25.70;99.90;;;;;;5016580;28;20184;-55
2023/06/06 08:23:16;;;;;;;5.70;3.50;;;25.70;99.90;;;;;;5016567;28;20217;-55
2023/06/06 08:25:42;;;;;;;5.27;4.20;;;25.90;99.90;;;;;;5016858;28;20264;-55
2023/06/06 08:28:07;;;;;;;8.30;4.00;;;26.10;99.90;;;;;;5016807;28;20187;-55
2023/06/06 08:30:33;;;;;;;10.10;4.50;;;26.30;99.90;;;;;;5016678;28;20518;-56
2023/06/06 08:32:58;;;;;;;7.27;3.90;;;26.50;99.90;;;;;;5016461;28;20188;-56
2023/06/06 08:35:24;;;;;;;5.67;4.03;;;26.80;99.90;;;;;;5016687;28;20195;-56
2023/06/06 08:37:52;;;;;;;9.60;4.47;;;27.00;99.90;;;;;;5016444;28;20710;-55
2023/06/06 08:40:17;;;;;;;10.97;4.00;;;27.20;99.90;;;;;;5016138;28;20242;-56
2023/06/06 08:42:48;;;;;;;6.77;3.83;;;27.30;99.90;;;;;;5016373;28;20423;-56
2023/06/06 08:45:16;;;;;;;6.37;3.70;;;27.40;99.90;;;;;;5016080;28;20684;-56
2023/06/06 08:47:44;;;;;;;8.60;4.10;;;27.60;99.90;;;;;;5016187;28;20415;-56
2023/06/06 08:50:09;;;;;;;5.93;3.73;;;27.90;99.90;;;;;;5016522;28;20419;-56
2023/06/06 08:52:36;;;;;;;11.57;4.03;;;28.00;99.90;;;;;;5015921;28;20529;-54
2023/06/06 08:55:04;;;;;;;7.67;4.10;;;27.80;99.90;;;;;;5014751;28;20589;-56
2023/06/06 08:57:30;;;;;;;13.07;3.90;;;27.80;99.90;;;;;;5016240;28;20430;-56
2023/06/06 08:59:56;;;;;;;4.83;3.60;;;27.90;99.90;;;;;;5015601;28;20751;-56
2023/06/06 09:02:22;;;;;;;8.73;4.43;;;28.10;99.90;;;;;;5015772;28;20415;-56
2023/06/06 09:04:51;;;;;;;6.40;4.30;;;28.30;99.90;;;;;;5015714;28;20263;-56
2023/06/06 09:07:18;;;;;;;9.23;4.10;;;28.70;99.90;;;;;;5015661;28;20977;-55
2023/06/06 09:09:47;;;;;;;7.77;4.37;;;28.80;99.90;;;;;;5015834;28;20416;-54
2023/06/06 09:12:13;;;;;;;6.10;3.73;;;28.80;99.90;;;;;;5015804;28;20911;-55
2023/06/06 09:14:39;;;;;;;9.50;3.90;;;28.60;99.90;;;;;;5015818;28;20433;-55
2023/06/06 09:17:05;;;;;;;7.60;3.83;;;28.70;99.90;;;;;;5015765;28;20191;-55
2023/06/06 09:19:31;;;;;;;7.53;4.17;;;28.80;99.90;;;;;;5015738;28;20768;-55
2023/06/06 09:21:59;;;;;;;6.30;3.90;;;28.90;99.90;;;;;;5015204;28;20235;-55
2023/06/06 09:24:27;;;;;;;8.23;4.00;;;28.80;99.90;;;;;;5015677;28;20459;-54
2023/06/06 09:26:52;;;;;;;5.93;3.23;;;28.80;99.90;;;;;;5015184;28;20419;-55
2023/06/06 09:29:18;;;;;;;8.87;4.10;;;29.00;99.90;;;;;;5015377;28;20422;-54
2023/06/06 09:31:43;;;;;;;3.63;3.17;;;29.30;99.90;;;;;;5015107;28;20176;-54
2023/06/06 09:34:10;;;;;;;5.60;3.70;;;29.20;99.90;;;;;;5015354;28;20191;-55
2023/06/06 09:36:42;;;;;;;10.73;4.00;;;29.20;99.90;;;;;;5015161;28;20180;-55
2023/06/06 09:39:12;;;;;;;7.77;3.60;;;29.10;99.90;;;;;;5015196;28;20422;-54
2023/06/06 09:41:48;;;;;;;6.60;3.70;;;28.80;99.90;;;;;;5015501;28;20416;-54
2023/06/06 09:44:31;;;;;;;8.67;3.93;;;29.10;99.90;;;;;;5014967;28;20485;-54
2023/06/06 09:46:58;;;;;;;5.23;3.70;;;29.50;99.90;;;;;;5014932;28;20458;-55
2023/06/06 09:49:24;;;;;;;7.47;4.13;;;29.80;99.90;;;;;;5015264;28;20428;-54
2023/06/06 09:51:53;;;;;;;6.33;3.23;;;29.70;99.90;;;;;;5014851;28;20470;-55
2023/06/06 09:54:18;;;;;;;6.37;3.90;;;29.80;99.90;;;;;;5014863;28;20204;-55
2023/06/06 09:56:47;;;;;;;6.50;3.50;;;29.80;99.90;;;;;;5014974;28;20949;-55
2023/06/06 09:59:14;;;;;;;5.30;3.50;;;30.00;99.90;;;;;;5014504;28;20183;-55
2023/06/06 10:01:42;;;;;;;5.87;3.70;;;30.10;99.90;;;;;;5014719;28;20748;-55
2023/06/06 10:04:08;;;;;;;4.10;3.17;;;30.10;99.90;;;;;;5014916;28;20459;-55
2023/06/06 10:06:34;;;;;;;5.93;3.83;;;30.30;99.90;;;;;;5014495;28;20502;-55
2023/06/06 10:09:06;;;;;;;5.67;3.30;;;30.70;99.90;;;;;;5014370;28;20518;-55
2023/06/06 10:11:33;;;;;;;7.73;3.70;;;30.70;99.90;;;;;;5014773;28;20191;-55
2023/06/06 10:14:01;;;;;;;4.20;3.20;;;30.70;99.90;;;;;;5014807;28;20502;-55
2023/06/06 10:16:29;;;;;;;4.43;3.57;;;30.70;99.90;;;;;;5014628;28;20438;-55
2023/06/06 10:18:56;;;;;;;5.87;2.90;;;31.10;99.90;;;;;;5014183;28;20526;-56
2023/06/06 10:21:23;;;;;;;4.50;3.40;;;31.10;99.90;;;;;;5014016;28;20431;-55
2023/06/06 10:23:48;;;;;;;4.93;3.10;;;31.50;99.90;;;;;;5014165;28;20489;-57
2023/06/06 10:26:22;;;;;;;3.73;2.97;;;31.20;99.90;;;;;;5029410;28;20438;-57
2023/06/06 10:28:58;;;;;;;3.93;3.40;;;31.20;99.90;;;;;;5014318;28;20601;-55
2023/06/06 10:31:53;;;;;;;4.90;3.57;;;30.70;99.90;;;;;;5014369;28;20410;-55
2023/06/06 10:34:27;;;;;;;4.37;3.03;;;30.60;99.90;;;;;;5014394;28;20510;-55
2023/06/06 10:36:56;;;;;;;6.80;3.27;;;30.70;99.90;;;;;;5014373;28;20454;-55
2023/06/06 10:39:31;;;;;;;5.87;3.37;;;30.90;99.90;;;;;;5014062;28;20438;-55
2023/06/06 10:42:05;;;;;;;5.20;3.40;;;31.10;99.90;;;;;;5013633;28;20497;-54
2023/06/06 10:44:35;;;;;;;3.10;2.80;;;31.60;99.90;;;;;;5013983;28;20758;-55
2023/06/06 10:47:24;;;;;;;5.47;3.00;;;31.80;99.90;;;;;;5014119;28;20427;-55
2023/06/06 10:50:08;;;;;;;4.67;3.00;;;31.90;99.90;;;;;;5014056;28;20451;-55
2023/06/06 10:52:46;;;;;;;6.07;3.10;;;32.00;99.90;;;;;;5013470;28;20475;-55
2023/06/06 10:55:44;;;;;;;6.80;3.20;;;32.00;99.90;;;;;;5013319;28;20431;-56
2023/06/06 10:58:13;;;;;;;14.87;3.73;;;32.20;99.90;;;;;;5013684;28;20829;-56
2023/06/06 11:00:41;;;;;;;5.47;2.73;;;32.50;99.90;;;;;;5014001;28;20454;-56
2023/06/06 11:03:08;;;;;;;5.83;2.83;;;32.50;99.90;;;;;;5013619;28;20786;-56
2023/06/06 11:06:00;;;;;;;3.27;2.80;;;32.30;99.90;;;;;;5013433;28;20425;-55
2023/06/06 11:08:33;;;;;;;9.13;3.90;;;32.30;99.90;;;;;;5013475;28;20433;-55
2023/06/06 11:11:16;;;;;;;7.60;3.70;;;32.20;99.90;;;;;;5013750;28;20429;-56
2023/06/06 11:14:07;;;;;;;5.50;2.83;;;32.10;99.90;;;;;;5013897;28;20416;-56
2023/06/06 11:16:45;;;;;;;3.63;3.20;;;32.00;99.90;;;;;;5013035;28;20450;-55
2023/06/06 11:19:16;;;;;;;3.70;3.40;;;31.90;99.90;;;;;;5012482;28;20407;-55
2023/06/06 11:21:44;;;;;;;6.63;3.37;;;32.00;99.90;;;;;;5012476;28;20490;-55
2023/06/06 11:24:10;;;;;;;7.43;3.30;;;32.10;99.90;;;;;;5011894;28;20458;-55
2023/06/06 11:26:39;;;;;;;9.50;3.60;;;32.50;99.90;;;;;;5012253;28;20420;-55
2023/06/06 11:29:07;;;;;;;25.40;4.30;;;32.40;99.90;;;;;;5012065;28;20774;-55
2023/06/06 11:31:35;;;;;;;9.93;3.37;;;32.70;99.90;;;;;;5011831;28;20924;-55
2023/06/06 11:34:11;;;;;;;6.50;3.20;;;32.90;99.90;;;;;;5012138;28;20461;-55
2023/06/06 11:36:38;;;;;;;4.63;3.30;;;32.90;99.90;;;;;;5012560;28;20498;-56
2023/06/06 11:39:06;;;;;;;6.87;4.27;;;33.00;99.90;;;;;;5013158;28;20900;-56
2023/06/06 11:41:45;;;;;;;8.80;3.80;;;32.80;99.90;;;;;;5013659;28;20423;-56
2023/06/06 11:44:14;;;;;;;3.67;3.37;;;32.70;99.90;;;;;;5013306;28;20454;-55
2023/06/06 11:46:53;;;;;;;7.67;3.10;;;32.90;99.90;;;;;;5011815;28;20427;-55
2023/06/06 11:49:21;;;;;;;3.73;2.80;;;33.00;99.90;;;;;;5013166;28;20502;-56
2023/06/06 11:52:00;;;;;;;4.13;3.13;;;32.80;99.90;;;;;;5012693;28;20493;-55
2023/06/06 11:54:28;;;;;;;7.63;3.40;;;31.70;99.90;;;;;;5012797;28;20781;-55
2023/06/06 11:56:59;;;;;;;4.10;3.60;;;30.40;99.90;;;;;;5013318;28;20396;-55
2023/06/06 11:59:26;;;;;;;6.60;3.40;;;29.20;99.90;;;;;;5013274;28;20443;-55
2023/06/06 12:01:56;;;;;;;4.90;3.43;;;28.40;99.90;;;;;;5013145;28;20419;-55
2023/06/06 12:04:23;;;;;;;8.50;3.63;;;28.90;99.90;;;;;;5013086;28;20455;-56
2023/06/06 12:06:51;;;;;;;8.13;3.00;;;30.00;99.90;;;;;;5013156;28;20415;-56
2023/06/06 12:09:18;;;;;;;5.57;3.73;;;31.00;99.90;;;;;;5013446;28;20768;-54
2023/06/06 12:12:04;;;;;;;5.50;3.20;;;31.30;99.90;;;;;;5013381;28;20506;-55
2023/06/06 12:14:32;;;;;;;3.83;3.50;;;30.50;99.90;;;;;;5013317;28;20486;-55
2023/06/06 12:17:02;;;;;;;5.70;3.60;;;29.80;99.90;;;;;;5013182;28;20423;-54
2023/06/06 12:19:28;;;;;;;4.50;3.30;;;29.00;99.90;;;;;;5013156;28;20514;-55
2023/06/06 12:21:54;;;;;;;5.83;3.30;;;28.30;99.90;;;;;;5012781;28;20514;-54
2023/06/06 12:24:21;;;;;;;18.20;3.97;;;27.70;99.90;;;;;;5012880;28;20238;-55
2023/06/06 12:26:53;;;;;;;12.97;4.10;;;27.40;99.90;;;;;;5013291;28;20661;-54
2023/06/06 12:29:20;;;;;;;4.87;3.87;;;27.80;99.90;;;;;;5012944;28;20763;-54
2023/06/06 12:31:49;;;;;;;6.90;4.13;;;29.10;99.90;;;;;;5016725;28;20419;-54
2023/06/06 12:34:14;;;;;;;4.67;3.43;;;30.50;99.90;;;;;;5016518;28;20442;-54
2023/06/06 12:36:41;;;;;;;8.83;3.47;;;31.60;99.90;;;;;;5016392;28;20499;-54
2023/06/06 12:39:11;;;;;;;4.63;3.53;;;32.20;99.90;;;;;;5016414;28;20237;-54
2023/06/06 12:41:41;;;;;;;4.77;3.50;;;32.60;99.90;;;;;;5016311;28;20792;-55
2023/06/06 12:44:16;;;;;;;7.13;4.00;;;33.10;99.90;;;;;;5015591;28;20509;-55
2023/06/06 12:46:43;;;;;;;5.70;3.70;;;33.20;99.90;;;;;;5016164;28;20402;-56